Date,TemperatureHighF,TemperatureAvgF,TemperatureLowF,DewpointHighF,DewpointAvgF,DewpointLowF,HumidityHigh,HumidityAvg,HumidityLow,PressureMaxIn,PressureMinIn,WindSpeedMaxMPH,WindSpeedAvgMPH,GustSpeedMaxMPH,PrecipitationSumIn
2014-1-1,29.0,20.8,11.4,21.1,14.6,9.0,91,78,54,30.40,30.23,11,0,11,0.01
2014-1-2,23.1,18.5,10.4,19.9,15.4,7.6,94,87,82,30.30,29.75,13,2,13,0.00
2014-1-3,11.1,5.7,-2.8,8.5,-0.4,-8.0,89,76,62,30.45,29.69,23,2,23,0.00
2014-1-4,25.1,7.6,-6.2,8.3,0.3,-9.3,90,74,42,30.54,30.31,13,1,16,0.00
2014-1-5,34.1,19.8,3.8,33.4,16.7,1.5,100,88,64,30.34,29.81,5,1,6,0.00
2014-1-6,55.1,40.0,22.8,55.1,37.3,17.1,100,91,61,29.81,29.36,16,2,17,1.05
2014-1-7,22.8,7.9,3.9,18.3,-4.4,-9.8,83,57,42,30.32,29.58,19,3,19,0.00
2014-1-8,19.6,10.1,3.0,7.4,1.8,-4.9,90,69,51,30.51,30.31,10,1,10,0.00
2014-1-9,29.4,17.5,8.8,15.6,11.2,6.7,93,78,52,30.65,30.47,7,1,12,0.00
2014-1-10,33.0,25.8,12.8,32.2,24.0,10.2,100,93,87,30.60,30.23,3,0,3,0.01
2014-1-11,56.5,45.0,32.6,56.5,44.8,32.1,100,99,98,30.23,29.28,14,1,16,0.75
2014-1-12,48.2,40.1,28.1,48.2,33.1,25.6,100,77,57,30.02,29.33,13,1,13,0.00
2014-1-13,47.5,35.2,24.4,37.8,30.8,23.4,97,85,60,30.13,29.89,10,1,10,0.00
2014-1-14,42.6,38.6,33.6,42.2,38.0,32.2,99,98,93,29.90,29.66,5,0,5,0.52
2014-1-15,46.9,35.9,28.9,43.4,34.1,28.6,100,93,70,29.99,29.81,10,1,10,0.01
2014-1-16,35.5,33.4,29.5,34.2,31.0,27.2,98,91,85,29.94,29.84,7,0,7,0.00
2014-1-17,42.4,30.5,23.1,30.2,26.6,22.1,97,87,54,29.98,29.90,11,1,11,0.00
2014-1-18,35.9,30.6,21.8,34.6,29.1,20.3,97,94,89,29.90,29.63,7,0,7,0.10
2014-1-19,30.9,25.8,20.4,26.4,22.8,19.3,96,89,77,29.79,29.59,14,1,14,0.00
2014-1-20,39.1,32.6,22.0,31.6,26.6,13.9,93,78,66,29.90,29.54,13,1,13,0.15
2014-1-21,22.0,14.3,9.0,14.3,8.0,2.8,88,76,62,30.03,29.86,9,1,10,0.00
2014-1-22,11.3,5.0,-2.8,2.8,-3.9,-9.3,75,66,55,29.99,29.78,18,2,18,0.00
2014-1-23,18.5,8.0,-1.4,6.5,-0.6,-6.3,81,68,50,30.24,29.98,12,1,12,0.00
2014-1-24,18.5,9.1,0.1,3.7,0.1,-3.6,87,68,45,30.34,30.06,11,1,11,0.00
2014-1-25,24.4,19.5,12.6,20.4,12.3,2.7,93,74,57,30.06,29.41,15,2,15,0.00
2014-1-26,18.9,15.6,7.4,15.9,8.0,1.3,95,72,48,29.86,29.41,16,1,16,0.00
2014-1-27,39.0,25.0,16.8,33.6,15.5,-2.6,96,70,36,30.05,29.59,14,1,15,0.09
2014-1-28,16.7,11.5,1.4,4.9,-2.0,-5.7,76,55,40,30.34,30.05,13,1,13,0.00
2014-1-29,23.4,14.7,8.1,9.5,2.8,-2.6,92,62,32,30.27,30.04,11,1,11,0.00
2014-1-30,29.2,14.5,0.4,9.3,3.8,-2.8,87,65,37,30.45,30.20,9,1,9,0.01
2014-1-31,37.6,27.0,12.7,25.7,17.9,9.3,88,70,42,30.23,30.07,8,1,9,0.04
2014-2-1,44.1,33.6,26.1,29.4,25.7,23.6,91,74,48,30.33,30.03,11,1,11,0.10
2014-2-2,47.2,37.7,32.1,40.5,33.9,29.4,98,87,66,30.09,29.89,9,0,9,0.01
2014-2-3,35.3,29.4,17.7,29.8,26.2,16.3,94,88,78,30.30,30.08,8,0,8,0.00
2014-2-4,33.7,22.9,10.9,24.1,18.3,9.0,95,83,62,30.47,30.29,8,0,8,0.18
2014-2-5,30.9,27.5,22.5,29.4,25.7,19.7,96,93,84,30.29,29.64,15,1,15,0.00
2014-2-6,27.8,18.2,7.3,19.7,12.0,5.0,94,78,48,30.28,29.96,14,1,14,0.09
2014-2-7,30.5,13.2,-0.4,15.8,7.4,-3.1,92,79,48,30.31,30.19,10,1,13,0.05
2014-2-8,29.6,16.3,1.4,11.7,6.2,-1.3,90,68,34,30.32,30.13,8,1,8,0.05
2014-2-9,29.5,20.8,8.5,21.1,12.9,5.0,94,73,48,30.18,29.96,7,1,7,0.06
2014-2-10,28.2,18.2,2.9,20.0,11.1,0.2,94,75,48,30.26,29.95,13,1,14,0.04
2014-2-11,23.9,10.1,-4.8,10.2,2.0,-7.7,92,71,49,30.49,30.25,10,1,11,0.00
2014-2-12,26.9,13.3,-4.3,14.7,2.4,-7.4,89,65,31,30.57,30.33,7,1,8,0.03
2014-2-13,33.2,27.5,18.3,31.8,25.7,14.7,97,93,86,30.33,29.04,18,2,20,0.00
2014-2-14,38.4,30.8,23.0,32.0,27.2,21.0,97,87,67,29.76,28.92,20,2,20,0.13
2014-2-15,34.8,27.2,18.3,29.4,23.4,16.8,95,86,69,29.80,29.61,17,1,17,0.11
2014-2-16,29.7,22.9,15.3,18.1,13.8,9.1,85,68,47,30.06,29.67,21,2,21,0.08
2014-2-17,28.5,16.4,7.8,9.1,2.9,-2.8,82,58,31,30.38,30.06,19,2,21,0.05
2014-2-18,31.7,21.0,10.1,27.2,17.0,3.6,95,84,66,30.34,29.94,6,1,6,0.00
2014-2-19,35.2,25.7,11.7,34.7,24.3,9.8,99,95,84,30.11,29.69,5,1,5,0.10
2014-2-20,48.1,37.6,23.4,36.2,29.4,22.3,99,76,40,30.23,29.94,11,1,11,0.57
2014-2-21,40.2,35.1,30.0,39.9,34.6,29.4,99,98,97,30.07,29.65,10,1,12,0.34
2014-2-22,51.2,35.2,22.5,37.5,27.2,21.8,99,77,34,30.01,29.88,15,1,16,0.11
2014-2-23,49.4,35.5,23.9,32.4,28.7,22.6,96,79,46,30.00,29.78,5,0,6,0.00
2014-2-24,34.6,29.2,20.7,31.4,16.4,8.5,93,60,40,30.02,29.77,15,2,18,0.00
2014-2-25,28.5,20.5,11.0,17.3,10.7,6.5,88,66,50,30.04,29.90,9,1,19,0.00
2014-2-26,29.0,16.4,6.5,15.5,6.0,-3.5,90,66,35,29.96,29.80,18,1,18,0.00
2014-2-27,30.2,15.4,3.1,13.0,3.4,-9.0,82,60,38,30.03,29.59,17,2,20,0.00
2014-2-28,21.5,10.9,-1.5,6.0,-2.4,-8.8,77,56,36,30.44,30.03,13,1,13,0.00
2014-3-1,34.6,20.1,2.7,24.0,9.8,-2.1,83,66,43,30.44,30.12,11,1,13,0.00
2014-3-2,37.0,30.1,22.7,24.4,21.1,13.0,85,70,55,30.12,29.98,9,1,9,0.00
2014-3-3,22.6,14.7,6.2,13.9,2.1,-5.5,75,57,39,30.33,30.03,14,2,17,0.00
2014-3-4,28.7,16.9,2.0,15.4,5.3,-2.6,88,62,37,30.42,30.24,9,1,10,0.00
2014-3-5,32.7,25.2,16.7,16.9,12.8,8.6,77,60,39,30.48,30.21,8,0,8,0.00
2014-3-6,31.2,14.4,3.1,10.8,3.8,-3.4,88,66,23,30.63,30.48,4,0,8,0.00
2014-3-7,37.1,25.5,9.0,27.4,17.4,4.1,82,72,52,30.50,29.93,8,1,8,0.00
2014-3-8,50.3,38.4,30.3,32.7,29.7,26.1,94,73,45,29.93,29.75,8,1,9,0.00
2014-3-9,40.1,33.5,27.2,29.6,22.2,16.4,82,64,42,29.99,29.86,10,1,10,0.00
2014-3-10,45.1,35.4,27.0,32.0,27.5,21.4,89,74,54,29.90,29.58,9,0,9,0.00
2014-3-11,59.6,41.3,27.7,39.4,31.4,26.5,96,73,32,29.71,29.51,11,1,13,0.00
2014-3-12,49.4,39.6,23.2,41.9,35.3,19.9,98,85,62,29.70,29.01,7,1,17,0.27
2014-3-13,23.5,18.6,13.6,19.7,8.8,2.6,87,66,46,30.04,29.13,22,3,22,0.00
2014-3-14,40.5,25.0,9.4,28.1,14.4,5.7,90,66,40,30.22,29.91,18,1,18,0.01
2014-3-15,52.3,41.1,32.2,38.1,31.2,23.3,97,71,41,29.96,29.71,15,1,16,0.01
2014-3-16,36.7,28.9,22.4,24.1,12.7,0.2,80,51,37,30.20,29.95,13,1,13,0.00
2014-3-17,34.4,24.3,18.2,15.0,7.1,1.3,80,50,26,30.16,30.02,8,1,9,0.00
2014-3-18,43.1,27.9,15.1,20.2,11.0,3.7,82,54,20,30.31,30.14,8,1,9,0.00
2014-3-19,42.2,31.6,19.6,34.8,25.0,17.7,96,78,46,30.33,29.89,10,1,10,0.25
2014-3-20,51.4,40.7,34.1,42.4,32.5,24.1,99,75,45,29.89,29.68,17,2,17,0.33
2014-3-21,44.9,36.7,26.4,25.6,22.9,19.7,89,59,39,30.05,29.82,10,2,17,0.00
2014-3-22,58.5,38.9,24.2,40.9,28.6,21.8,91,70,36,30.06,29.72,14,2,15,0.00
2014-3-23,37.4,30.9,21.4,27.0,19.8,7.5,89,65,42,30.12,29.95,12,1,12,0.00
2014-3-24,32.4,23.8,15.4,12.8,7.9,4.5,75,52,31,30.21,30.07,15,2,15,0.00
2014-3-25,36.7,26.3,13.6,19.3,14.7,10.6,88,64,38,30.16,29.87,13,1,13,0.00
2014-3-26,34.6,28.4,20.6,19.3,11.4,0.8,68,50,31,30.16,29.73,24,3,24,0.00
2014-3-27,43.4,28.6,12.4,25.6,11.7,5.1,87,53,25,30.39,30.16,14,1,14,0.00
2014-3-28,44.7,38.9,30.5,44.1,34.9,22.2,98,86,64,30.24,29.96,6,0,6,0.29
2014-3-29,48.8,41.9,32.5,45.9,40.7,31.9,99,96,79,30.21,29.79,11,1,14,0.25
2014-3-30,47.1,42.2,36.6,45.5,41.0,35.3,98,95,90,29.79,29.53,12,2,13,0.85
2014-3-31,48.4,37.1,31.9,38.2,32.4,28.3,96,84,63,30.05,29.69,21,2,21,0.50
2014-4-1,58.2,42.7,27.6,39.2,32.5,25.4,94,70,42,30.11,29.97,9,1,10,0.21
2014-4-2,60.7,43.6,31.5,42.1,36.5,29.8,96,78,39,30.11,30.00,7,1,7,0.00
2014-4-3,59.2,45.8,30.3,34.1,29.0,22.4,97,57,27,30.13,30.01,11,1,11,0.00
2014-4-4,49.0,42.3,35.8,35.5,31.0,26.1,96,66,44,30.08,29.76,17,2,19,0.06
2014-4-5,51.5,41.9,32.5,42.2,32.4,22.9,98,72,43,30.01,29.71,17,2,22,0.06
2014-4-6,57.6,40.9,27.4,30.7,24.8,20.4,84,57,24,30.19,30.01,13,1,13,0.00
2014-4-7,53.4,42.0,29.7,43.6,30.3,19.9,96,68,28,30.21,29.75,12,2,12,0.06
2014-4-8,63.8,51.3,43.8,56.7,45.4,34.8,99,82,54,29.75,29.32,14,2,16,0.21
2014-4-9,57.7,46.4,34.1,39.7,29.5,13.4,94,56,28,30.01,29.57,13,2,14,0.00
2014-4-10,61.4,44.6,25.4,36.3,27.6,19.0,90,55,29,30.17,30.00,18,2,18,0.00
2014-4-11,69.5,54.1,44.6,54.5,43.9,34.9,97,71,43,30.03,29.92,12,1,12,0.10
2014-4-12,69.5,53.4,37.7,49.2,41.3,31.8,99,70,26,30.22,29.98,13,1,13,0.10
2014-4-13,78.1,56.9,38.7,58.2,48.0,36.4,92,74,46,30.20,29.95,19,2,19,0.01
2014-4-14,74.3,61.9,47.2,58.7,53.8,46.1,97,77,56,30.00,29.83,19,3,22,0.00
2014-4-15,61.2,54.5,31.8,60.2,52.6,30.7,98,93,83,29.85,29.50,20,3,22,0.88
2014-4-16,42.2,32.4,26.4,30.8,22.1,16.8,96,68,38,30.59,29.85,19,2,21,0.31
2014-4-17,52.2,37.2,24.7,29.7,25.3,21.4,94,66,33,30.74,30.58,9,1,11,0.00
2014-4-18,49.5,38.1,26.2,34.4,29.7,24.6,95,74,48,30.61,30.24,7,1,9,0.00
2014-4-19,62.4,46.6,30.7,39.3,33.1,28.6,96,64,32,30.37,30.19,17,1,17,0.00
2014-4-20,62.8,46.1,30.3,34.4,28.0,21.1,93,56,22,30.48,30.32,12,1,12,0.00
2014-4-21,70.7,52.2,29.3,38.6,28.7,15.4,94,50,12,30.32,29.85,11,1,11,0.00
2014-4-22,74.0,53.9,38.2,56.0,45.2,36.0,97,76,35,29.85,29.47,12,1,12,0.02
2014-4-23,55.1,47.7,43.0,49.9,41.0,30.4,98,79,56,29.75,29.46,17,2,18,0.10
2014-4-24,57.9,47.4,37.6,30.6,21.9,15.5,64,39,20,30.00,29.75,23,2,23,0.00
2014-4-25,66.7,49.9,30.5,34.6,26.6,19.3,85,45,18,30.03,29.79,11,1,12,0.00
2014-4-26,62.6,47.9,41.1,50.7,43.6,35.7,98,87,50,29.85,29.68,9,0,9,0.73
2014-4-27,55.7,46.3,38.1,43.4,39.0,35.6,97,77,55,30.11,29.84,15,1,15,0.00
2014-4-28,64.8,50.3,33.8,43.0,37.4,32.4,96,65,37,30.16,29.98,11,1,14,0.00
2014-4-29,48.5,45.3,40.0,41.2,38.5,36.5,91,77,63,30.44,30.16,13,2,13,0.05
2014-4-30,45.4,41.8,38.7,44.9,40.5,37.1,98,95,92,30.45,30.03,11,2,11,1.88
2014-5-1,76.8,58.4,45.5,62.8,52.4,45.0,100,83,41,30.03,29.63,13,1,14,0.49
2014-5-2,66.6,54.8,43.4,47.4,42.2,35.9,97,66,35,29.82,29.68,14,1,15,0.01
2014-5-3,68.7,52.9,38.4,50.8,43.0,37.1,97,73,36,29.87,29.71,12,1,13,0.02
2014-5-4,65.7,53.4,42.2,48.2,38.1,27.0,100,61,29,29.74,29.56,21,2,21,0.02
2014-5-5,65.3,54.7,47.3,44.3,39.4,34.8,78,58,34,29.87,29.72,17,2,18,0.00
2014-5-6,65.5,53.3,42.8,43.5,36.8,29.6,91,57,30,30.06,29.86,15,1,15,0.00
2014-5-7,67.3,52.6,35.0,42.3,34.6,27.2,94,56,23,30.21,30.06,5,1,11,0.00
2014-5-8,56.1,50.6,43.5,54.3,48.0,39.4,97,91,80,30.18,30.09,4,0,4,0.01
2014-5-9,59.9,56.6,53.2,58.7,55.9,52.6,99,98,95,30.19,30.01,11,1,11,0.03
2014-5-10,80.2,64.4,58.4,67.9,61.5,57.8,100,91,56,30.02,29.76,13,0,13,0.46
2014-5-11,79.4,62.0,49.2,58.8,48.5,30.4,99,69,19,30.05,29.83,8,1,15,0.02
2014-5-12,87.3,65.8,44.6,61.3,50.2,42.8,95,64,26,30.11,29.99,9,1,11,0.00
2014-5-13,73.8,61.6,50.1,59.2,49.1,43.4,96,66,41,30.27,30.00,12,1,12,0.00
2014-5-14,73.0,58.1,44.8,58.1,49.6,42.6,95,75,48,30.30,30.20,10,1,10,0.00
2014-5-15,72.0,64.3,58.2,67.9,62.9,56.5,99,95,82,30.25,30.09,12,1,12,0.08
2014-5-16,68.3,65.6,63.2,66.5,64.6,62.1,98,96,92,30.09,29.77,16,2,17,0.79
2014-5-17,68.7,58.7,48.6,65.2,49.6,39.8,98,75,40,30.09,29.77,12,1,14,0.38
2014-5-18,67.6,53.9,41.0,44.6,40.2,35.4,94,63,33,30.17,30.08,13,1,13,0.00
2014-5-19,69.3,53.5,37.3,47.0,40.5,35.1,96,65,33,30.19,30.04,18,1,18,0.00
2014-5-20,76.2,58.4,39.9,52.1,43.7,35.8,98,65,26,30.11,29.95,15,1,16,0.00
2014-5-21,77.7,62.1,45.6,54.9,49.3,43.0,97,67,31,29.97,29.86,9,0,10,0.00
2014-5-22,58.9,55.6,53.9,57.9,54.5,51.7,99,96,89,29.89,29.78,8,0,10,0.68
2014-5-23,68.3,59.5,54.9,60.6,56.9,54.6,99,92,69,29.92,29.83,5,0,5,0.01
2014-5-24,66.0,59.1,53.3,59.0,54.5,51.8,98,86,65,30.06,29.90,5,0,6,0.09
2014-5-25,80.1,62.3,46.2,63.0,52.7,45.5,99,76,31,30.07,29.99,13,0,13,0.00
2014-5-26,85.6,67.5,50.9,61.2,56.1,50.0,99,72,37,30.03,29.83,12,0,14,0.00
2014-5-27,88.3,70.5,54.7,67.9,59.9,53.7,99,73,37,29.86,29.69,24,0,24,1.52
2014-5-28,55.1,51.7,46.8,52.4,49.2,45.3,98,91,85,30.18,29.88,10,0,10,0.26
2014-5-29,68.7,54.6,39.6,54.2,46.2,38.6,100,76,48,30.22,30.11,9,0,11,0.00
2014-5-30,76.8,60.1,48.9,57.7,52.0,46.5,100,78,38,30.15,29.97,10,0,10,0.06
2014-5-31,69.7,58.3,46.9,56.0,51.3,46.1,99,80,52,30.29,30.05,12,0,14,0.01
2014-6-1,78.2,60.6,43.4,59.4,47.8,40.7,99,69,27,30.35,30.21,6,0,7,0.00
2014-6-2,82.6,64.2,45.1,62.7,54.5,43.8,97,74,45,30.25,29.99,10,1,12,0.00
2014-6-3,87.6,68.9,53.0,73.2,62.7,52.2,99,83,54,30.01,29.79,11,0,11,0.16
2014-6-4,78.5,67.5,57.7,67.6,61.1,55.9,99,82,47,29.86,29.72,7,0,7,0.04
2014-6-5,73.3,63.3,59.2,63.8,59.8,52.3,98,89,66,29.76,29.63,8,0,8,0.29
2014-6-6,74.2,62.4,52.2,60.7,54.9,50.3,95,78,56,29.92,29.76,11,0,11,0.00
2014-6-7,81.4,65.2,49.4,64.3,56.2,48.6,99,76,43,29.98,29.89,8,0,11,0.00
2014-6-8,85.9,68.5,51.5,68.2,58.0,50.6,99,73,35,29.95,29.83,7,0,10,0.00
2014-6-9,65.3,61.8,59.1,63.8,60.2,56.5,98,94,89,29.97,29.88,7,0,7,0.17
2014-6-10,77.3,68.0,61.1,71.5,65.7,60.5,99,93,79,30.01,29.92,8,0,10,0.00
2014-6-11,66.4,62.7,58.4,63.1,59.1,53.8,95,88,80,30.12,30.01,10,0,11,0.08
2014-6-12,69.0,63.1,57.7,66.7,60.7,54.6,97,92,85,30.11,29.95,7,0,7,0.02
2014-6-13,73.8,67.3,63.9,71.3,66.2,63.3,99,96,91,29.95,29.72,9,0,9,0.84
2014-6-14,73.2,65.0,53.8,65.4,59.1,49.8,99,83,58,29.99,29.76,11,1,17,0.00
2014-6-15,76.5,63.5,53.2,64.4,56.1,51.2,96,78,55,30.08,29.98,12,1,15,0.00
2014-6-16,84.1,67.4,51.4,66.1,57.3,50.9,99,74,39,30.15,30.01,8,0,8,0.00
2014-6-17,88.2,72.2,57.0,75.6,65.4,55.9,97,81,47,30.06,29.84,8,0,8,0.00
2014-6-18,85.0,73.5,62.0,72.3,66.5,60.5,99,80,55,29.97,29.76,11,0,11,0.01
2014-6-19,82.0,69.6,56.4,70.3,62.7,54.9,99,81,49,29.99,29.92,8,0,8,0.10
2014-6-20,77.5,62.8,49.2,60.0,53.5,46.8,99,75,38,30.00,29.89,9,0,9,0.02
2014-6-21,78.0,62.7,46.9,58.7,52.2,45.5,97,72,37,29.99,29.87,8,0,8,0.00
2014-6-22,82.8,65.1,50.6,60.9,54.6,48.7,98,72,36,30.02,29.91,6,0,8,0.00
2014-6-23,83.2,67.3,51.0,66.0,57.6,50.2,99,74,38,30.14,30.02,9,1,10,0.00
2014-6-24,80.4,67.7,55.5,66.4,60.2,54.7,98,79,56,30.14,29.99,16,0,16,0.00
2014-6-25,84.3,70.9,58.1,74.9,66.5,56.6,97,87,70,30.01,29.81,11,1,11,0.00
2014-6-26,85.0,73.1,65.6,73.7,69.0,64.0,99,88,61,29.96,29.78,7,0,10,0.29
2014-6-27,85.2,72.7,61.4,67.8,62.5,53.7,97,74,38,30.20,29.96,8,0,8,0.00
2014-6-28,87.2,70.4,54.4,69.7,61.3,53.6,99,77,36,30.26,30.20,8,0,8,0.00
2014-6-29,87.8,70.2,55.4,69.8,62.4,54.6,99,79,42,30.25,30.09,14,0,14,0.00
2014-6-30,84.0,71.0,55.4,70.2,63.4,54.6,98,79,55,30.11,29.92,10,1,10,0.00
2014-7-1,89.0,75.2,61.2,76.5,69.3,60.3,98,83,63,29.94,29.78,13,1,13,0.00
2014-7-2,89.9,75.0,66.1,79.6,71.1,65.2,99,89,67,29.92,29.80,16,1,16,1.24
2014-7-3,88.3,75.2,66.2,80.5,72.2,65.2,99,91,71,30.01,29.85,12,0,12,0.32
2014-7-4,69.1,65.2,59.1,68.8,64.3,58.4,99,97,89,29.98,29.88,8,0,9,0.52
2014-7-5,81.2,65.6,53.1,61.3,55.8,50.6,100,75,39,30.10,29.94,9,0,9,0.24
2014-7-6,84.3,67.6,50.8,65.1,58.4,50.0,99,76,43,30.07,29.88,11,0,11,0.02
2014-7-7,87.6,74.2,63.7,74.5,67.8,62.0,98,82,59,29.90,29.68,14,1,16,0.07
2014-7-8,88.1,74.9,64.4,78.8,70.7,63.8,99,88,64,29.81,29.63,13,0,13,0.04
2014-7-9,85.0,74.1,65.1,73.8,68.6,63.7,99,84,58,29.93,29.70,10,0,10,0.02
2014-7-10,83.0,69.6,60.1,67.7,62.5,56.5,98,80,42,30.13,29.93,7,0,8,0.01
2014-7-11,85.0,70.1,57.1,66.0,60.2,54.6,98,74,38,30.20,30.13,6,0,6,0.00
2014-7-12,86.9,71.2,57.3,73.2,63.9,56.5,99,80,47,30.21,30.10,8,0,9,0.01
2014-7-13,81.0,71.5,62.8,74.3,68.2,60.8,97,90,76,30.11,29.87,12,0,12,0.00
2014-7-14,78.5,71.9,68.2,74.9,70.7,67.6,99,96,85,29.90,29.82,5,0,5,0.01
2014-7-15,82.9,75.7,68.9,77.9,73.8,68.3,99,94,83,29.82,29.70,7,0,7,0.01
2014-7-16,79.4,69.4,62.3,71.3,66.4,61.7,99,91,64,29.87,29.71,7,0,7,0.01
2014-7-17,81.0,67.2,55.6,68.5,61.4,55.0,99,83,51,30.09,29.87,7,0,7,0.01
2014-7-18,82.7,65.7,51.2,65.4,57.7,50.4,99,79,40,30.22,30.09,8,0,8,0.01
2014-7-19,75.5,64.4,56.2,67.4,60.2,55.1,98,87,66,30.25,30.18,4,0,5,0.44
2014-7-20,81.1,66.9,57.4,66.4,60.1,56.0,98,81,48,30.19,30.09,7,0,9,0.00
2014-7-21,85.7,69.8,55.2,72.2,63.5,54.4,99,82,53,30.19,30.10,8,0,8,0.00
2014-7-22,87.6,73.2,59.3,76.6,68.1,58.7,99,85,63,30.15,30.00,9,0,9,0.00
2014-7-23,88.8,75.5,63.5,79.4,71.0,62.9,99,87,67,30.00,29.73,12,1,13,0.72
2014-7-24,79.8,70.0,59.9,68.3,64.2,58.6,99,83,53,29.90,29.76,11,0,12,0.01
2014-7-25,80.9,65.9,53.7,67.1,59.5,53.0,100,82,49,30.01,29.90,6,0,6,0.00
2014-7-26,79.4,67.5,56.7,70.1,63.3,56.1,99,87,64,29.99,29.87,7,0,9,0.00
2014-7-27,82.5,71.4,63.7,75.9,69.3,62.6,99,94,77,29.89,29.63,9,0,9,0.14
2014-7-28,81.1,71.2,61.2,74.3,68.4,59.5,100,91,68,29.65,29.44,11,0,17,0.09
2014-7-29,75.0,65.0,55.8,64.2,58.6,54.5,97,81,56,29.95,29.63,9,0,12,0.00
2014-7-30,78.5,65.8,57.2,65.2,58.5,53.0,98,80,46,30.03,29.94,6,0,11,0.00
2014-7-31,80.5,65.8,53.5,69.3,61.0,53.0,99,86,59,30.14,30.03,13,0,13,0.00
2014-8-1,86.0,70.2,59.9,74.4,66.4,59.0,99,89,59,30.20,30.14,10,0,10,0.29
2014-8-2,75.0,67.1,61.8,67.6,64.2,60.3,99,91,68,30.19,30.09,7,0,7,0.01
2014-8-3,75.1,66.5,59.9,68.9,63.6,59.0,98,91,74,30.12,30.01,3,0,4,0.02
2014-8-4,83.3,71.1,61.3,74.1,66.4,60.0,97,86,63,30.04,29.98,10,0,12,0.00
2014-8-5,88.5,72.6,60.6,74.6,65.8,59.2,96,81,50,30.03,29.88,8,0,8,0.35
2014-8-6,81.5,69.1,60.5,69.5,63.8,58.2,95,84,56,29.92,29.81,8,0,8,0.00
2014-8-7,79.8,64.5,53.0,66.8,57.9,51.3,95,81,49,30.00,29.87,9,0,10,0.00
2014-8-8,80.3,64.2,50.3,65.9,57.3,48.5,94,80,52,30.07,29.99,11,0,11,0.00
2014-8-9,84.3,67.1,52.2,69.0,59.1,50.2,94,78,47,30.11,30.05,7,0,7,0.00
2014-8-10,86.0,68.6,53.4,69.8,60.1,51.2,93,77,43,30.14,30.07,5,0,6,0.00
2014-8-11,86.8,70.0,56.2,69.3,61.1,53.9,92,76,45,30.13,30.07,8,0,10,0.00
2014-8-12,77.3,68.1,60.5,68.0,63.7,57.6,91,86,69,30.10,29.89,10,0,11,0.01
2014-8-13,73.5,67.7,61.6,69.4,64.2,58.5,90,89,83,29.89,29.62,12,0,13,1.66
2014-8-14,76.6,63.8,53.9,62.0,56.3,51.3,92,78,45,29.88,29.73,8,0,11,0.07
2014-8-15,68.0,59.7,52.3,59.7,54.7,49.8,92,84,65,29.96,29.85,8,0,8,0.01
2014-8-16,75.9,61.7,48.3,62.4,55.2,45.8,92,81,53,30.00,29.89,8,0,9,0.00
2014-8-17,79.4,65.8,56.1,67.2,58.9,53.1,90,79,54,29.89,29.78,9,0,9,0.00
2014-8-18,79.1,62.8,50.2,61.9,55.4,47.6,91,78,46,29.89,29.81,8,0,9,0.00
2014-8-19,81.8,64.1,49.1,61.9,55.1,46.6,91,75,43,29.94,29.86,6,0,6,0.00
2014-8-20,84.6,69.1,56.2,71.7,62.4,53.0,89,80,59,30.01,29.93,6,0,8,0.00
2014-8-21,77.5,69.0,63.6,69.7,63.3,60.0,88,83,67,30.05,29.99,7,0,7,0.02
2014-8-22,73.5,66.9,63.1,65.5,62.1,59.5,88,85,71,30.06,30.00,6,0,6,0.15
2014-8-23,75.1,66.6,58.0,64.6,60.9,55.0,90,82,63,30.12,30.04,6,0,7,0.00
2014-8-24,82.9,66.1,51.6,65.6,58.0,49.1,91,77,46,30.15,30.08,9,0,10,0.00
2014-8-25,88.8,69.3,53.3,70.9,61.1,50.5,92,77,46,30.17,30.09,8,0,8,0.01
2014-8-26,88.5,71.2,57.7,71.8,63.0,54.5,89,77,46,30.16,30.03,7,0,7,0.00
2014-8-27,90.8,72.3,58.1,76.3,65.4,54.9,89,80,58,30.06,29.83,10,0,10,0.67
2014-8-28,77.5,66.0,56.9,66.3,58.5,53.0,89,78,52,30.04,29.84,13,0,13,0.00
2014-8-29,77.0,62.7,49.3,61.7,54.6,46.5,92,77,50,30.24,30.04,8,0,8,0.00
2014-8-30,77.0,64.6,51.7,66.0,58.7,48.9,90,82,59,30.27,30.12,9,0,12,0.00
2014-8-31,83.2,71.7,67.1,75.7,67.2,63.1,87,86,76,30.13,29.92,7,0,8,0.49
2014-9-1,86.4,74.1,64.6,76.2,68.7,61.0,89,84,65,29.99,29.89,7,0,7,0.00
2014-9-2,89.8,78.4,67.6,78.4,71.3,63.3,87,80,61,29.92,29.73,7,0,8,0.00
2014-9-3,83.5,70.9,60.1,69.5,62.9,56.4,88,77,47,30.09,29.73,7,0,12,0.00
2014-9-4,85.5,69.6,54.0,68.6,61.0,50.8,89,76,49,30.19,30.08,7,0,9,0.01
2014-9-5,86.4,72.7,60.3,75.5,66.4,56.1,87,81,68,30.15,29.98,11,0,13,0.00
2014-9-6,88.5,75.0,62.1,77.7,68.7,57.5,86,81,67,29.99,29.78,10,0,10,0.38
2014-9-7,77.3,64.7,53.7,63.6,56.7,49.8,87,77,46,30.20,29.91,8,0,10,0.03
2014-9-8,74.9,62.0,51.2,62.0,54.7,47.5,87,78,58,30.34,30.20,8,0,8,0.00
2014-9-9,70.1,61.0,49.9,62.6,55.5,46.2,87,82,73,30.31,30.16,5,0,7,0.01
2014-9-10,76.3,62.2,50.7,62.9,55.5,46.7,87,79,58,30.16,30.01,3,0,7,0.00
2014-9-11,75.7,67.0,59.5,70.2,61.6,54.7,84,83,78,30.01,29.79,10,0,11,0.00
2014-9-12,65.8,62.2,48.8,56.2,53.1,45.3,88,73,65,30.20,29.95,9,0,11,0.00
2014-9-13,63.4,55.6,47.9,56.4,50.9,44.5,88,84,72,30.23,30.10,6,0,8,0.25
2014-9-14,65.8,53.3,44.2,51.6,46.3,40.9,88,78,49,30.26,30.14,8,0,13,0.00
2014-9-15,67.5,52.4,41.3,53.9,44.6,38.1,89,77,43,30.24,30.08,8,0,9,0.01
2014-9-16,66.8,56.4,50.1,60.0,51.6,46.1,87,84,69,30.08,29.95,5,0,6,0.18
2014-9-17,67.6,53.4,41.1,56.0,46.8,37.8,92,79,53,30.05,29.95,8,0,11,0.01
2014-9-18,73.0,55.9,41.4,58.5,47.9,38.1,88,77,45,30.11,29.95,7,0,9,0.00
2014-9-19,63.2,52.3,42.0,50.6,43.7,38.7,92,74,45,30.39,30.11,5,0,9,0.00
2014-9-20,73.6,56.8,42.3,62.0,51.4,38.9,92,82,65,30.36,30.07,10,1,13,0.00
2014-9-21,75.7,65.4,55.7,69.5,59.4,51.0,84,81,79,30.08,29.58,4,0,5,0.02
2014-9-22,70.0,59.8,46.4,59.1,50.4,41.2,84,72,50,30.12,29.58,13,1,13,0.01
2014-9-23,69.8,52.5,37.8,53.3,44.5,34.6,92,76,46,30.42,30.12,7,0,9,0.00
2014-9-24,70.4,56.8,45.2,56.2,49.0,41.1,89,76,53,30.58,30.42,7,0,8,0.00
2014-9-25,64.1,57.4,52.1,56.2,51.3,47.4,85,80,66,30.50,30.22,6,0,7,0.00
2014-9-26,78.5,60.7,46.1,60.4,51.8,41.8,88,74,44,30.22,30.14,8,0,8,0.00
2014-9-27,82.1,62.3,46.8,65.2,53.9,42.4,85,75,50,30.21,30.14,8,0,9,0.01
2014-9-28,82.9,64.2,50.4,67.3,56.1,45.4,83,76,51,30.17,29.99,0,0,0,0.00
2014-9-29,77.9,63.9,55.1,65.9,56.8,49.4,83,78,58,29.99,29.89,3,0,4,0.01
2014-9-30,67.1,60.9,58.3,60.4,55.3,53.2,84,82,77,30.00,29.91,6,0,7,0.00
2014-10-1,61.7,59.0,56.9,55.7,53.1,50.8,83,81,78,30.08,29.98,4,0,4,0.20
2014-10-2,68.4,59.3,55.0,59.6,53.1,49.2,84,80,69,30.16,30.07,5,0,7,0.02
2014-10-3,71.0,56.7,43.7,55.7,48.4,39.2,84,75,47,30.14,29.85,6,0,7,0.00
2014-10-4,62.1,56.7,48.7,54.8,50.8,43.5,83,81,77,29.86,29.47,6,0,6,0.97
2014-10-5,59.2,47.0,37.9,43.7,39.4,34.0,87,76,46,29.98,29.62,13,0,13,0.01
2014-10-6,67.8,51.4,35.4,52.3,43.5,31.6,86,76,49,30.08,29.98,13,1,21,0.00
2014-10-7,72.8,61.4,48.4,60.0,53.6,43.3,83,76,54,30.07,29.89,15,1,15,0.02
2014-10-8,70.2,60.2,49.3,57.9,51.7,44.9,85,75,48,29.91,29.69,15,1,15,0.63
2014-10-9,66.5,51.6,38.9,47.8,42.0,35.1,89,72,43,30.02,29.88,11,0,11,0.00
2014-10-10,60.2,48.1,35.1,48.4,40.6,31.6,87,77,50,30.12,30.02,6,0,6,0.00
2014-10-11,52.8,46.4,38.2,48.1,42.2,34.3,86,85,82,30.17,30.06,5,0,5,0.19
2014-10-12,62.2,45.1,32.5,46.2,37.8,29.1,92,77,49,30.32,30.17,5,0,9,0.00
2014-10-13,59.9,49.5,35.9,53.5,44.4,32.1,86,83,77,30.34,30.24,6,0,8,0.00
2014-10-14,75.3,64.4,55.8,65.7,56.8,49.0,81,76,64,30.24,30.10,17,1,17,0.02
2014-10-15,75.3,69.5,64.1,68.3,62.2,56.2,81,78,73,30.10,29.85,15,1,15,0.14
2014-10-16,68.9,65.5,58.4,60.3,57.9,51.5,83,76,72,29.85,29.65,12,1,12,1.35
2014-10-17,70.8,59.1,50.9,57.3,51.1,45.0,84,75,55,29.70,29.61,11,1,11,0.01
2014-10-18,67.9,54.0,47.2,57.9,48.0,41.7,84,80,66,29.67,29.51,8,0,9,0.03
2014-10-19,51.4,46.3,37.7,45.5,36.3,28.1,85,69,48,30.02,29.67,15,1,15,0.01
2014-10-20,55.5,42.8,29.5,43.1,35.5,26.4,92,76,54,30.10,29.96,11,0,11,0.00
2014-10-21,66.5,52.9,42.0,52.6,46.2,37.7,86,78,57,29.97,29.84,8,0,8,0.00
2014-10-22,55.4,52.3,48.1,51.0,47.7,43.3,89,84,80,29.97,29.74,14,1,14,0.56
2014-10-23,49.9,48.1,45.9,45.9,43.8,42.0,87,85,83,29.79,29.67,10,1,11,0.26
2014-10-24,52.6,48.9,45.8,47.5,44.5,41.5,87,85,81,29.82,29.74,10,1,12,0.14
2014-10-25,59.3,43.8,36.2,48.1,39.1,32.7,92,84,61,29.84,29.76,9,0,10,0.00
2014-10-26,57.1,51.3,38.7,47.0,42.5,35.2,87,72,59,29.78,29.51,13,1,17,0.10
2014-10-27,61.3,49.3,38.5,44.5,41.2,35.2,88,75,47,30.03,29.77,13,1,13,0.00
2014-10-28,72.7,52.1,37.4,55.2,44.4,33.9,88,77,48,30.05,29.90,6,0,8,0.00
2014-10-29,68.2,52.0,43.2,58.5,45.7,38.7,85,80,51,29.92,29.80,9,0,11,0.07
2014-10-30,57.2,44.7,35.6,45.3,37.8,32.0,87,78,51,30.02,29.91,8,0,9,0.00
2014-10-31,53.6,42.7,31.2,42.2,36.0,27.8,92,78,56,30.02,29.91,7,0,9,0.03
2014-11-1,48.7,43.2,39.7,40.0,37.7,35.3,87,81,68,29.91,29.78,10,1,10,0.03
2014-11-2,48.1,40.0,35.6,36.5,28.0,18.3,87,64,42,29.98,29.74,20,2,21,0.00
2014-11-3,58.7,39.5,25.2,34.6,29.0,22.0,92,69,33,30.10,29.96,11,1,12,0.00
2014-11-4,69.3,50.3,38.0,39.3,34.0,26.6,85,58,25,30.13,29.99,10,1,10,0.00
2014-11-5,61.7,48.4,40.0,48.4,39.1,33.2,87,72,39,30.13,29.96,10,0,11,0.00
2014-11-6,47.0,44.4,39.8,42.7,40.0,35.7,86,85,81,30.11,29.54,4,0,4,0.13
2014-11-7,48.8,42.5,34.3,40.9,35.4,28.2,87,76,57,29.87,29.53,13,1,18,0.00
2014-11-8,49.4,37.4,26.4,34.0,28.6,23.3,89,72,46,30.01,29.87,9,1,9,0.00
2014-11-9,56.2,42.9,30.6,38.0,34.3,27.5,89,73,44,30.01,29.87,12,1,14,0.00
2014-11-10,60.9,41.1,28.5,39.5,32.6,25.7,89,75,38,30.17,30.01,7,1,7,0.01
2014-11-11,62.6,47.2,32.9,53.8,42.3,29.7,92,83,71,30.16,29.92,7,1,7,0.00
2014-11-12,63.4,50.4,39.0,56.0,44.0,30.7,85,79,70,30.06,29.84,15,1,15,0.00
2014-11-13,49.0,39.4,30.0,33.6,28.7,25.5,88,67,45,30.09,29.95,5,0,11,0.07
2014-11-14,39.3,32.8,26.1,32.3,27.9,22.4,89,82,61,30.15,29.93,11,0,11,0.12
2014-11-15,39.7,28.1,20.4,25.6,20.7,17.9,90,76,43,30.37,30.15,10,1,10,0.00
2014-11-16,39.7,30.7,19.7,30.5,24.5,17.2,90,79,56,30.39,30.11,11,0,11,0.01
2014-11-17,44.0,38.3,33.2,39.7,34.6,30.0,88,86,84,30.11,29.46,8,0,8,0.90
2014-11-18,41.0,29.8,19.8,37.1,16.7,6.0,92,59,37,30.03,29.53,18,2,18,0.00
2014-11-19,32.3,24.3,16.6,15.9,10.7,7.5,70,56,39,30.22,30.02,11,2,11,0.00
2014-11-20,43.6,32.5,21.7,25.2,19.3,13.3,84,60,41,30.04,29.78,14,1,15,0.00
2014-11-21,34.9,25.6,16.0,15.7,12.7,10.4,86,59,41,30.47,29.95,18,1,18,0.00
2014-11-22,40.7,28.8,13.5,24.7,16.2,11.0,90,63,37,30.47,30.16,13,1,13,0.00
2014-11-23,60.1,41.5,32.6,35.0,29.7,23.9,84,65,35,30.18,30.02,8,0,8,0.00
2014-11-24,64.5,56.2,38.6,59.5,51.0,33.2,87,83,79,30.02,29.53,18,2,18,0.63
2014-11-25,61.2,48.8,35.1,56.2,38.4,30.3,92,69,42,30.12,29.69,12,1,12,0.00
2014-11-26,39.1,34.5,31.4,33.7,31.0,28.5,89,87,75,30.20,29.76,7,0,8,0.22
2014-11-27,34.2,31.3,28.9,30.5,28.3,25.8,90,89,85,30.04,29.79,7,0,7,0.16
2014-11-28,35.4,27.0,17.3,26.9,22.7,14.8,91,84,66,30.25,30.01,13,0,13,0.15
2014-11-29,30.5,23.5,13.0,26.9,19.1,10.9,91,83,65,30.35,30.22,5,0,6,0.01
2014-11-30,47.6,36.5,30.1,40.2,32.9,27.0,90,87,74,30.22,30.06,8,0,8,0.53
2014-12-1,56.8,41.0,33.8,48.8,35.0,24.1,89,80,64,30.46,30.05,16,1,16,0.07
2014-12-2,37.2,33.2,28.8,30.6,25.6,20.2,89,74,63,30.64,30.33,10,1,13,0.07
2014-12-3,43.0,37.9,31.4,39.3,34.6,28.4,92,88,86,30.33,29.93,10,0,10,0.15
2014-12-4,42.1,31.3,23.5,30.6,25.4,21.0,92,80,52,30.53,30.16,9,0,9,0.01
2014-12-5,35.9,29.8,21.4,31.8,24.6,18.9,98,81,61,30.62,30.35,6,1,7,0.38
2014-12-6,39.9,37.2,34.8,36.7,33.9,31.6,92,88,86,30.35,30.11,11,0,11,0.82
2014-12-7,38.6,32.6,22.5,33.4,18.9,1.9,88,59,34,30.63,30.22,21,2,21,0.00
2014-12-8,30.2,24.0,17.7,26.7,15.7,3.1,87,71,44,30.73,30.40,11,1,12,0.00
2014-12-9,41.4,36.5,30.2,37.8,33.4,26.8,89,88,87,30.40,29.62,20,2,20,1.47
2014-12-10,36.4,34.0,30.2,33.2,31.0,27.0,89,88,87,29.64,29.51,12,1,13,0.00
2014-12-11,33.0,30.1,27.1,28.9,26.2,23.4,92,85,76,29.84,29.52,10,1,11,0.04
2014-12-12,34.1,29.5,24.6,27.5,25.1,21.9,91,84,74,29.97,29.83,5,1,13,0.00
2014-12-13,39.5,33.6,30.2,31.0,28.2,25.9,86,80,69,29.96,29.85,16,2,18,0.00
2014-12-14,39.2,37.0,33.9,34.1,32.3,29.9,87,83,78,29.95,29.84,14,1,14,0.00
2014-12-15,43.4,34.5,25.4,34.0,29.5,23.1,91,82,67,30.12,29.93,13,1,13,0.00
2014-12-16,39.9,33.5,24.7,36.5,30.7,22.5,91,89,87,30.12,29.86,6,0,6,0.17
2014-12-17,46.7,41.2,36.3,42.8,37.5,33.1,88,87,82,29.86,29.76,12,0,12,0.03
2014-12-18,39.4,35.8,31.7,33.2,29.8,27.6,88,79,68,29.93,29.80,12,1,12,0.00
2014-12-19,35.1,31.4,27.1,28.6,24.9,21.6,83,77,66,30.17,29.92,10,1,11,0.00
2014-12-20,31.0,28.0,21.4,24.9,22.7,18.5,90,80,72,30.28,30.17,8,0,8,0.00
2014-12-21,34.6,31.0,28.5,31.1,28.1,24.9,90,89,84,30.33,30.26,6,0,6,0.02
2014-12-22,41.6,36.4,31.5,37.0,33.2,28.9,90,88,82,30.34,30.19,7,1,7,0.05
2014-12-23,44.1,41.5,38.8,41.7,38.1,35.6,92,88,87,30.22,30.08,10,1,10,0.06
2014-12-24,49.5,44.3,41.7,44.7,40.3,37.9,87,86,83,30.09,29.51,7,1,7,0.23
2014-12-25,56.9,47.2,36.5,50.8,39.1,30.6,87,74,55,30.04,29.44,15,1,15,0.11
2014-12-26,48.1,34.9,26.9,35.9,29.2,24.0,89,81,55,30.23,30.03,9,0,10,0.00
2014-12-27,53.4,35.8,26.0,38.7,30.4,23.2,89,82,55,30.25,30.04,8,1,8,0.00
2014-12-28,48.4,41.2,34.8,45.1,36.8,28.4,89,84,77,30.05,29.82,7,0,7,0.00
2014-12-29,40.9,31.5,26.0,28.8,24.6,13.9,90,76,55,30.25,30.04,10,0,11,0.00
2014-12-30,30.9,23.3,14.8,15.4,12.6,9.3,82,64,46,30.39,30.24,14,1,14,0.00
2014-12-31,30.5,20.2,12.3,17.2,10.9,5.9,89,69,40,30.34,30.13,12,1,12,0.00
2015-1-1,34.3,23.3,11.9,18.3,11.8,7.8,92,63,38,30.13,29.93,14,1,16,0.00
2015-1-2,38.8,27.7,17.4,25.3,20.7,15.0,91,76,52,30.45,29.96,14,1,14,0.00